sensor_id;sensor_type;location;lat;lon;timestamp;temperature;humidity
26821;DHT22;37186;51.394;5.454;2022-12-18T00:01:57;0.30;79.80
26821;DHT22;37186;51.394;5.454;2022-12-18T00:04:59;0.30;79.80
26821;DHT22;37186;51.394;5.454;2022-12-18T00:07:59;0.20;79.70
26821;DHT22;37186;51.394;5.454;2022-12-18T00:11:07;0.10;79.70
26821;DHT22;37186;51.394;5.454;2022-12-18T00:14:09;0.10;79.70
26821;DHT22;37186;51.394;5.454;2022-12-18T00:17:11;0.10;79.70
26821;DHT22;37186;51.394;5.454;2022-12-18T00:20:11;0.10;79.70
26821;DHT22;37186;51.394;5.454;2022-12-18T00:23:12;0.00;79.70
26821;DHT22;37186;51.394;5.454;2022-12-18T00:26:24;0.00;79.80
26821;DHT22;37186;51.394;5.454;2022-12-18T00:29:25;0.00;79.60
26821;DHT22;37186;51.394;5.454;2022-12-18T00:32:26;-0.10;79.60
26821;DHT22;37186;51.394;5.454;2022-12-18T00:35:26;-0.10;79.60
26821;DHT22;37186;51.394;5.454;2022-12-18T00:38:27;-0.10;79.60
26821;DHT22;37186;51.394;5.454;2022-12-18T00:41:28;-0.20;79.50
26821;DHT22;37186;51.394;5.454;2022-12-18T00:44:47;-0.20;79.50
26821;DHT22;37186;51.394;5.454;2022-12-18T00:47:47;-0.30;79.50
26821;DHT22;37186;51.394;5.454;2022-12-18T00:50:48;-0.30;79.40
26821;DHT22;37186;51.394;5.454;2022-12-18T00:53:49;-0.30;79.40
26821;DHT22;37186;51.394;5.454;2022-12-18T00:56:50;-0.30;79.40
26821;DHT22;37186;51.394;5.454;2022-12-18T00:59:50;-0.40;79.40
26821;DHT22;37186;51.394;5.454;2022-12-18T01:02:51;-0.40;79.40
26821;DHT22;37186;51.394;5.454;2022-12-18T01:05:51;-0.40;79.40
26821;DHT22;37186;51.394;5.454;2022-12-18T01:08:52;-0.40;79.40
26821;DHT22;37186;51.394;5.454;2022-12-18T01:11:53;-0.50;79.40
26821;DHT22;37186;51.394;5.454;2022-12-18T01:14:53;-0.50;79.40
26821;DHT22;37186;51.394;5.454;2022-12-18T01:17:54;-0.50;79.40
26821;DHT22;37186;51.394;5.454;2022-12-18T01:20:54;-0.60;79.40
26821;DHT22;37186;51.394;5.454;2022-12-18T01:23:56;-0.60;79.30
26821;DHT22;37186;51.394;5.454;2022-12-18T01:26:56;-0.60;79.40
26821;DHT22;37186;51.394;5.454;2022-12-18T01:29:57;-0.70;79.30
26821;DHT22;37186;51.394;5.454;2022-12-18T01:32:58;-0.70;79.30
26821;DHT22;37186;51.394;5.454;2022-12-18T01:35:58;-0.70;79.30
26821;DHT22;37186;51.394;5.454;2022-12-18T01:39:11;-0.70;79.30
26821;DHT22;37186;51.394;5.454;2022-12-18T01:42:13;-0.70;79.30
26821;DHT22;37186;51.394;5.454;2022-12-18T01:48:15;-0.80;79.30
26821;DHT22;37186;51.394;5.454;2022-12-18T01:51:16;-0.80;79.30
26821;DHT22;37186;51.394;5.454;2022-12-18T01:54:17;-0.90;79.10
26821;DHT22;37186;51.394;5.454;2022-12-18T01:57:18;-0.90;79.10
26821;DHT22;37186;51.394;5.454;2022-12-18T02:00:21;-0.90;79.20
26821;DHT22;37186;51.394;5.454;2022-12-18T02:03:22;-1.00;79.10
26821;DHT22;37186;51.394;5.454;2022-12-18T02:06:40;-1.00;79.10
26821;DHT22;37186;51.394;5.454;2022-12-18T02:17:07;-1.00;79.20
26821;DHT22;37186;51.394;5.454;2022-12-18T02:20:28;-1.10;79.10
26821;DHT22;37186;51.394;5.454;2022-12-18T02:23:51;-1.10;79.10
26821;DHT22;37186;51.394;5.454;2022-12-18T02:27:01;-1.10;79.10
26821;DHT22;37186;51.394;5.454;2022-12-18T02:30:04;-1.10;79.10
26821;DHT22;37186;51.394;5.454;2022-12-18T02:33:07;-1.20;79.10
26821;DHT22;37186;51.394;5.454;2022-12-18T02:36:09;-1.20;79.00
26821;DHT22;37186;51.394;5.454;2022-12-18T02:39:12;-1.20;79.10
26821;DHT22;37186;51.394;5.454;2022-12-18T02:42:14;-1.20;79.00
26821;DHT22;37186;51.394;5.454;2022-12-18T02:45:16;-1.20;79.00
26821;DHT22;37186;51.394;5.454;2022-12-18T02:48:19;-1.20;79.00
26821;DHT22;37186;51.394;5.454;2022-12-18T02:51:34;-1.30;79.00
26821;DHT22;37186;51.394;5.454;2022-12-18T02:54:57;-1.30;79.00
26821;DHT22;37186;51.394;5.454;2022-12-18T02:58:10;-1.30;79.00
26821;DHT22;37186;51.394;5.454;2022-12-18T03:01:36;-1.30;79.00
26821;DHT22;37186;51.394;5.454;2022-12-18T03:04:43;-1.40;78.90
26821;DHT22;37186;51.394;5.454;2022-12-18T03:08:08;-1.30;79.10
26821;DHT22;37186;51.394;5.454;2022-12-18T03:11:12;-1.30;79.00
26821;DHT22;37186;51.394;5.454;2022-12-18T03:14:15;-1.40;78.90
26821;DHT22;37186;51.394;5.454;2022-12-18T03:17:20;-1.40;79.80
26821;DHT22;37186;51.394;5.454;2022-12-18T03:20:25;-1.40;78.90
26821;DHT22;37186;51.394;5.454;2022-12-18T03:23:30;-1.40;78.90
26821;DHT22;37186;51.394;5.454;2022-12-18T03:26:33;-1.50;78.90
26821;DHT22;37186;51.394;5.454;2022-12-18T03:29:40;-1.50;78.90
26821;DHT22;37186;51.394;5.454;2022-12-18T03:33:18;-1.50;78.90
26821;DHT22;37186;51.394;5.454;2022-12-18T03:36:20;-1.40;78.90
26821;DHT22;37186;51.394;5.454;2022-12-18T03:39:21;-1.50;78.90
26821;DHT22;37186;51.394;5.454;2022-12-18T03:45:37;-1.50;78.80
26821;DHT22;37186;51.394;5.454;2022-12-18T03:48:43;-1.50;78.80
26821;DHT22;37186;51.394;5.454;2022-12-18T03:51:54;-1.50;78.90
26821;DHT22;37186;51.394;5.454;2022-12-18T03:54:59;-1.50;78.80
26821;DHT22;37186;51.394;5.454;2022-12-18T03:58:01;-1.60;78.80
26821;DHT22;37186;51.394;5.454;2022-12-18T04:01:09;-1.50;78.80
26821;DHT22;37186;51.394;5.454;2022-12-18T04:04:14;-1.60;78.70
26821;DHT22;37186;51.394;5.454;2022-12-18T04:07:16;-1.60;78.80
26821;DHT22;37186;51.394;5.454;2022-12-18T04:10:18;-1.60;78.80
26821;DHT22;37186;51.394;5.454;2022-12-18T04:13:29;-1.60;78.80
26821;DHT22;37186;51.394;5.454;2022-12-18T04:16:32;-1.60;78.80
26821;DHT22;37186;51.394;5.454;2022-12-18T04:19:32;-1.60;78.80
26821;DHT22;37186;51.394;5.454;2022-12-18T04:22:33;-1.60;78.80
26821;DHT22;37186;51.394;5.454;2022-12-18T04:25:33;-1.60;78.80
26821;DHT22;37186;51.394;5.454;2022-12-18T04:28:34;-1.60;78.80
26821;DHT22;37186;51.394;5.454;2022-12-18T04:31:34;-1.60;78.70
26821;DHT22;37186;51.394;5.454;2022-12-18T04:34:35;-1.60;78.70
26821;DHT22;37186;51.394;5.454;2022-12-18T04:37:35;-1.70;78.70
26821;DHT22;37186;51.394;5.454;2022-12-18T04:40:36;-1.70;78.70
26821;DHT22;37186;51.394;5.454;2022-12-18T04:43:37;-1.70;78.70
26821;DHT22;37186;51.394;5.454;2022-12-18T04:46:38;-1.70;78.70
26821;DHT22;37186;51.394;5.454;2022-12-18T04:49:38;-1.70;78.70
26821;DHT22;37186;51.394;5.454;2022-12-18T04:52:39;-1.70;78.70
26821;DHT22;37186;51.394;5.454;2022-12-18T04:55:39;-1.70;78.70
26821;DHT22;37186;51.394;5.454;2022-12-18T04:58:42;-1.70;78.60
26821;DHT22;37186;51.394;5.454;2022-12-18T05:01:43;-1.70;78.70
26821;DHT22;37186;51.394;5.454;2022-12-18T05:04:43;-1.70;78.60
26821;DHT22;37186;51.394;5.454;2022-12-18T05:07:44;-1.70;78.60
26821;DHT22;37186;51.394;5.454;2022-12-18T05:10:44;-1.70;78.60
26821;DHT22;37186;51.394;5.454;2022-12-18T05:13:45;-1.80;78.60
26821;DHT22;37186;51.394;5.454;2022-12-18T05:16:46;-1.80;78.60
26821;DHT22;37186;51.394;5.454;2022-12-18T05:19:46;-1.80;78.60
26821;DHT22;37186;51.394;5.454;2022-12-18T05:22:47;-1.80;78.60
26821;DHT22;37186;51.394;5.454;2022-12-18T05:25:59;-1.80;78.60
26821;DHT22;37186;51.394;5.454;2022-12-18T05:29:00;-1.80;78.60
26821;DHT22;37186;51.394;5.454;2022-12-18T05:32:00;-1.80;78.60
26821;DHT22;37186;51.394;5.454;2022-12-18T05:35:01;-1.80;78.50
26821;DHT22;37186;51.394;5.454;2022-12-18T05:38:01;-1.90;78.50
26821;DHT22;37186;51.394;5.454;2022-12-18T05:41:03;-1.90;78.50
26821;DHT22;37186;51.394;5.454;2022-12-18T05:44:03;-1.90;78.50
26821;DHT22;37186;51.394;5.454;2022-12-18T05:47:04;-1.90;78.40
26821;DHT22;37186;51.394;5.454;2022-12-18T05:50:05;-2.00;78.40
26821;DHT22;37186;51.394;5.454;2022-12-18T05:53:07;-1.90;78.50
26821;DHT22;37186;51.394;5.454;2022-12-18T05:56:11;-2.00;78.40
26821;DHT22;37186;51.394;5.454;2022-12-18T05:59:12;-2.00;78.40
26821;DHT22;37186;51.394;5.454;2022-12-18T06:02:12;-2.00;78.30
26821;DHT22;37186;51.394;5.454;2022-12-18T06:05:13;-2.00;78.40
26821;DHT22;37186;51.394;5.454;2022-12-18T06:08:14;-2.00;78.30
26821;DHT22;37186;51.394;5.454;2022-12-18T06:11:17;-2.00;78.30
26821;DHT22;37186;51.394;5.454;2022-12-18T06:14:18;-2.10;78.30
26821;DHT22;37186;51.394;5.454;2022-12-18T06:17:19;-2.10;78.10
26821;DHT22;37186;51.394;5.454;2022-12-18T06:20:20;-2.10;78.30
26821;DHT22;37186;51.394;5.454;2022-12-18T06:23:20;-2.10;78.40
26821;DHT22;37186;51.394;5.454;2022-12-18T06:26:21;-2.10;78.30
26821;DHT22;37186;51.394;5.454;2022-12-18T06:29:22;-2.20;78.30
26821;DHT22;37186;51.394;5.454;2022-12-18T06:32:22;-2.20;78.30
26821;DHT22;37186;51.394;5.454;2022-12-18T06:35:23;-2.20;78.30
26821;DHT22;37186;51.394;5.454;2022-12-18T06:38:24;-2.20;78.30
26821;DHT22;37186;51.394;5.454;2022-12-18T06:41:24;-2.20;78.30
26821;DHT22;37186;51.394;5.454;2022-12-18T06:44:25;-2.20;78.40
26821;DHT22;37186;51.394;5.454;2022-12-18T06:47:25;-2.20;78.30
26821;DHT22;37186;51.394;5.454;2022-12-18T06:50:26;-2.20;78.30
26821;DHT22;37186;51.394;5.454;2022-12-18T06:53:27;-2.20;78.40
26821;DHT22;37186;51.394;5.454;2022-12-18T06:56:28;-2.20;78.30
26821;DHT22;37186;51.394;5.454;2022-12-18T06:59:29;-2.30;78.30
26821;DHT22;37186;51.394;5.454;2022-12-18T07:02:29;-2.30;78.30
26821;DHT22;37186;51.394;5.454;2022-12-18T07:05:30;-2.30;78.30
26821;DHT22;37186;51.394;5.454;2022-12-18T07:08:31;-2.30;78.30
26821;DHT22;37186;51.394;5.454;2022-12-18T07:11:35;-2.30;78.30
26821;DHT22;37186;51.394;5.454;2022-12-18T07:14:35;-2.30;78.20
26821;DHT22;37186;51.394;5.454;2022-12-18T07:17:36;-2.30;78.20
26821;DHT22;37186;51.394;5.454;2022-12-18T07:20:36;-2.30;78.10
26821;DHT22;37186;51.394;5.454;2022-12-18T07:23:37;-2.30;78.20
26821;DHT22;37186;51.394;5.454;2022-12-18T07:26:38;-2.30;78.30
26821;DHT22;37186;51.394;5.454;2022-12-18T07:29:39;-2.30;78.20
26821;DHT22;37186;51.394;5.454;2022-12-18T07:32:39;-2.30;78.30
26821;DHT22;37186;51.394;5.454;2022-12-18T07:35:40;-2.30;78.20
26821;DHT22;37186;51.394;5.454;2022-12-18T07:38:40;-2.30;78.30
26821;DHT22;37186;51.394;5.454;2022-12-18T07:41:41;-2.30;78.30
26821;DHT22;37186;51.394;5.454;2022-12-18T07:45:05;-2.30;78.30
26821;DHT22;37186;51.394;5.454;2022-12-18T07:48:05;-2.30;78.30
26821;DHT22;37186;51.394;5.454;2022-12-18T07:51:07;-2.30;78.30
26821;DHT22;37186;51.394;5.454;2022-12-18T07:54:08;-2.30;78.30
26821;DHT22;37186;51.394;5.454;2022-12-18T07:57:08;-2.30;78.40
26821;DHT22;37186;51.394;5.454;2022-12-18T08:00:09;-2.30;78.30
26821;DHT22;37186;51.394;5.454;2022-12-18T08:03:13;-2.30;78.40
26821;DHT22;37186;51.394;5.454;2022-12-18T08:06:14;-2.30;78.30
26821;DHT22;37186;51.394;5.454;2022-12-18T08:09:14;-2.30;78.30
26821;DHT22;37186;51.394;5.454;2022-12-18T08:12:15;-2.30;78.40
26821;DHT22;37186;51.394;5.454;2022-12-18T08:15:15;-2.20;78.50
26821;DHT22;37186;51.394;5.454;2022-12-18T08:18:16;-2.30;78.40
26821;DHT22;37186;51.394;5.454;2022-12-18T08:21:25;-2.20;78.40
26821;DHT22;37186;51.394;5.454;2022-12-18T08:24:26;-2.20;78.50
26821;DHT22;37186;51.394;5.454;2022-12-18T08:27:27;-2.20;78.60
26821;DHT22;37186;51.394;5.454;2022-12-18T08:30:27;-2.20;78.60
26821;DHT22;37186;51.394;5.454;2022-12-18T08:33:28;-2.10;78.60
26821;DHT22;37186;51.394;5.454;2022-12-18T08:36:28;-2.10;78.70
26821;DHT22;37186;51.394;5.454;2022-12-18T08:39:29;-2.10;78.70
26821;DHT22;37186;51.394;5.454;2022-12-18T08:42:29;-2.10;78.70
26821;DHT22;37186;51.394;5.454;2022-12-18T08:45:48;-2.00;78.70
26821;DHT22;37186;51.394;5.454;2022-12-18T08:48:51;-2.00;78.80
26821;DHT22;37186;51.394;5.454;2022-12-18T08:51:54;-2.00;78.80
26821;DHT22;37186;51.394;5.454;2022-12-18T08:54:55;-2.00;78.90
26821;DHT22;37186;51.394;5.454;2022-12-18T08:57:55;-2.00;78.80
26821;DHT22;37186;51.394;5.454;2022-12-18T09:01:00;-1.90;78.80
26821;DHT22;37186;51.394;5.454;2022-12-18T09:04:02;-1.90;78.80
26821;DHT22;37186;51.394;5.454;2022-12-18T09:07:02;-1.90;78.90
26821;DHT22;37186;51.394;5.454;2022-12-18T09:10:03;-1.90;78.90
26821;DHT22;37186;51.394;5.454;2022-12-18T09:13:04;-1.80;79.10
26821;DHT22;37186;51.394;5.454;2022-12-18T09:16:05;-1.70;79.10
26821;DHT22;37186;51.394;5.454;2022-12-18T09:19:06;-1.70;79.20
26821;DHT22;37186;51.394;5.454;2022-12-18T09:22:06;-1.70;79.10
26821;DHT22;37186;51.394;5.454;2022-12-18T09:25:07;-1.60;79.20
26821;DHT22;37186;51.394;5.454;2022-12-18T09:28:15;-1.60;79.20
26821;DHT22;37186;51.394;5.454;2022-12-18T09:31:18;-1.60;79.20
26821;DHT22;37186;51.394;5.454;2022-12-18T09:34:19;-1.50;79.40
26821;DHT22;37186;51.394;5.454;2022-12-18T09:37:22;-1.50;79.30
26821;DHT22;37186;51.394;5.454;2022-12-18T09:40:26;-1.50;79.40
26821;DHT22;37186;51.394;5.454;2022-12-18T09:43:35;-1.40;79.40
26821;DHT22;37186;51.394;5.454;2022-12-18T09:46:42;-1.30;79.50
26821;DHT22;37186;51.394;5.454;2022-12-18T09:49:46;-1.30;79.50
26821;DHT22;37186;51.394;5.454;2022-12-18T09:52:50;-1.30;79.50
26821;DHT22;37186;51.394;5.454;2022-12-18T09:55:52;-1.30;79.50
26821;DHT22;37186;51.394;5.454;2022-12-18T09:59:04;-1.20;79.50
26821;DHT22;37186;51.394;5.454;2022-12-18T10:02:15;-1.20;79.60
26821;DHT22;37186;51.394;5.454;2022-12-18T10:05:24;-1.10;79.60
26821;DHT22;37186;51.394;5.454;2022-12-18T10:18:22;-0.90;79.80
26821;DHT22;37186;51.394;5.454;2022-12-18T10:21:39;-0.90;79.80
26821;DHT22;37186;51.394;5.454;2022-12-18T10:25:03;-0.80;79.80
26821;DHT22;37186;51.394;5.454;2022-12-18T10:28:10;-0.80;79.80
26821;DHT22;37186;51.394;5.454;2022-12-18T10:31:23;-0.70;80.00
26821;DHT22;37186;51.394;5.454;2022-12-18T10:34:24;-0.70;79.90
26821;DHT22;37186;51.394;5.454;2022-12-18T10:37:27;-0.60;80.00
26821;DHT22;37186;51.394;5.454;2022-12-18T10:40:28;-0.60;80.00
26821;DHT22;37186;51.394;5.454;2022-12-18T10:43:34;-0.60;80.00
26821;DHT22;37186;51.394;5.454;2022-12-18T10:46:35;-0.50;80.00
26821;DHT22;37186;51.394;5.454;2022-12-18T10:49:35;-0.50;80.00
26821;DHT22;37186;51.394;5.454;2022-12-18T10:52:37;-0.40;80.10
26821;DHT22;37186;51.394;5.454;2022-12-18T10:55:39;-0.40;80.00
26821;DHT22;37186;51.394;5.454;2022-12-18T10:58:59;-0.30;80.10
26821;DHT22;37186;51.394;5.454;2022-12-18T11:01:59;-0.30;80.10
26821;DHT22;37186;51.394;5.454;2022-12-18T11:05:00;-0.30;80.10
26821;DHT22;37186;51.394;5.454;2022-12-18T11:08:01;-0.20;80.10
26821;DHT22;37186;51.394;5.454;2022-12-18T11:11:02;-0.20;80.10
26821;DHT22;37186;51.394;5.454;2022-12-18T11:14:11;-0.10;80.20
26821;DHT22;37186;51.394;5.454;2022-12-18T11:17:27;-0.10;80.10
26821;DHT22;37186;51.394;5.454;2022-12-18T11:20:36;-0.10;80.20
26821;DHT22;37186;51.394;5.454;2022-12-18T11:23:50;-0.10;80.20
26821;DHT22;37186;51.394;5.454;2022-12-18T11:26:51;0.00;80.30
26821;DHT22;37186;51.394;5.454;2022-12-18T11:29:52;0.00;80.30
26821;DHT22;37186;51.394;5.454;2022-12-18T11:33:44;0.10;80.30
26821;DHT22;37186;51.394;5.454;2022-12-18T11:36:29;0.10;80.30
26821;DHT22;37186;51.394;5.454;2022-12-18T11:39:38;0.20;80.40
26821;DHT22;37186;51.394;5.454;2022-12-18T11:42:52;0.20;80.40
26821;DHT22;37186;51.394;5.454;2022-12-18T11:46:08;0.30;80.40
26821;DHT22;37186;51.394;5.454;2022-12-18T11:49:18;0.30;80.40
26821;DHT22;37186;51.394;5.454;2022-12-18T12:09:03;0.50;80.50
26821;DHT22;37186;51.394;5.454;2022-12-18T12:15:55;0.60;80.60
26821;DHT22;37186;51.394;5.454;2022-12-18T12:19:37;0.60;80.60
26821;DHT22;37186;51.394;5.454;2022-12-18T12:22:52;0.70;80.60
26821;DHT22;37186;51.394;5.454;2022-12-18T12:26:01;0.70;80.60
26821;DHT22;37186;51.394;5.454;2022-12-18T12:38:43;0.90;80.70
26821;DHT22;37186;51.394;5.454;2022-12-18T12:41:46;0.80;80.70
26821;DHT22;37186;51.394;5.454;2022-12-18T12:45:06;0.90;80.70
26821;DHT22;37186;51.394;5.454;2022-12-18T12:48:19;0.90;80.70
26821;DHT22;37186;51.394;5.454;2022-12-18T12:51:33;1.00;80.70
26821;DHT22;37186;51.394;5.454;2022-12-18T12:54:35;1.00;80.70
26821;DHT22;37186;51.394;5.454;2022-12-18T12:58:07;1.00;80.70
26821;DHT22;37186;51.394;5.454;2022-12-18T13:01:23;1.00;80.70
26821;DHT22;37186;51.394;5.454;2022-12-18T13:04:52;1.10;80.70
26821;DHT22;37186;51.394;5.454;2022-12-18T13:08:03;1.10;80.80
26821;DHT22;37186;51.394;5.454;2022-12-18T13:11:40;1.10;80.70
26821;DHT22;37186;51.394;5.454;2022-12-18T13:15:42;1.10;80.70
26821;DHT22;37186;51.394;5.454;2022-12-18T13:18:50;1.20;80.80
26821;DHT22;37186;51.394;5.454;2022-12-18T13:21:55;1.20;80.80
26821;DHT22;37186;51.394;5.454;2022-12-18T13:24:56;1.20;80.80
26821;DHT22;37186;51.394;5.454;2022-12-18T13:31:04;1.30;80.80
26821;DHT22;37186;51.394;5.454;2022-12-18T13:34:22;1.30;80.80
26821;DHT22;37186;51.394;5.454;2022-12-18T13:43:51;1.30;80.80
26821;DHT22;37186;51.394;5.454;2022-12-18T13:46:52;1.40;80.80
26821;DHT22;37186;51.394;5.454;2022-12-18T13:49:53;1.40;80.80
26821;DHT22;37186;51.394;5.454;2022-12-18T13:52:55;1.40;80.80
26821;DHT22;37186;51.394;5.454;2022-12-18T13:55:55;1.40;80.80
26821;DHT22;37186;51.394;5.454;2022-12-18T13:59:13;1.50;80.80
26821;DHT22;37186;51.394;5.454;2022-12-18T14:02:22;1.50;80.80
26821;DHT22;37186;51.394;5.454;2022-12-18T14:05:31;1.50;80.80
26821;DHT22;37186;51.394;5.454;2022-12-18T14:08:39;1.50;80.80
26821;DHT22;37186;51.394;5.454;2022-12-18T14:11:46;1.50;80.90
26821;DHT22;37186;51.394;5.454;2022-12-18T14:14:49;1.50;80.80
26821;DHT22;37186;51.394;5.454;2022-12-18T14:17:54;1.50;80.70
26821;DHT22;37186;51.394;5.454;2022-12-18T14:20:59;1.60;80.80
26821;DHT22;37186;51.394;5.454;2022-12-18T14:24:05;1.60;80.90
26821;DHT22;37186;51.394;5.454;2022-12-18T14:27:23;1.60;80.90
26821;DHT22;37186;51.394;5.454;2022-12-18T14:33:26;1.60;80.80
26821;DHT22;37186;51.394;5.454;2022-12-18T14:36:28;1.70;80.90
26821;DHT22;37186;51.394;5.454;2022-12-18T14:39:29;1.60;80.80
26821;DHT22;37186;51.394;5.454;2022-12-18T14:42:29;1.70;80.80
26821;DHT22;37186;51.394;5.454;2022-12-18T14:48:40;1.70;80.80
26821;DHT22;37186;51.394;5.454;2022-12-18T14:51:53;1.70;80.80
26821;DHT22;37186;51.394;5.454;2022-12-18T14:54:54;1.70;80.80
26821;DHT22;37186;51.394;5.454;2022-12-18T14:57:56;1.70;80.80
26821;DHT22;37186;51.394;5.454;2022-12-18T15:00:57;1.70;80.80
26821;DHT22;37186;51.394;5.454;2022-12-18T15:03:58;1.70;80.80
26821;DHT22;37186;51.394;5.454;2022-12-18T15:13:22;1.70;80.80
26821;DHT22;37186;51.394;5.454;2022-12-18T15:16:24;1.70;80.80
26821;DHT22;37186;51.394;5.454;2022-12-18T15:19:38;1.70;80.80
26821;DHT22;37186;51.394;5.454;2022-12-18T15:22:39;1.70;80.80
26821;DHT22;37186;51.394;5.454;2022-12-18T15:25:40;1.70;80.80
26821;DHT22;37186;51.394;5.454;2022-12-18T15:31:59;1.70;80.80
26821;DHT22;37186;51.394;5.454;2022-12-18T15:38:10;1.80;80.80
26821;DHT22;37186;51.394;5.454;2022-12-18T15:41:15;1.80;80.80
26821;DHT22;37186;51.394;5.454;2022-12-18T15:44:23;1.80;80.80
26821;DHT22;37186;51.394;5.454;2022-12-18T15:47:23;1.80;80.80
26821;DHT22;37186;51.394;5.454;2022-12-18T15:50:24;1.80;80.80
26821;DHT22;37186;51.394;5.454;2022-12-18T15:53:30;1.80;80.80
26821;DHT22;37186;51.394;5.454;2022-12-18T15:56:31;1.80;80.80
26821;DHT22;37186;51.394;5.454;2022-12-18T15:59:53;1.80;80.90
26821;DHT22;37186;51.394;5.454;2022-12-18T16:02:54;1.80;80.80
26821;DHT22;37186;51.394;5.454;2022-12-18T16:05:54;1.80;80.80
26821;DHT22;37186;51.394;5.454;2022-12-18T16:08:55;1.80;80.80
26821;DHT22;37186;51.394;5.454;2022-12-18T16:11:56;1.80;80.80
26821;DHT22;37186;51.394;5.454;2022-12-18T16:14:56;1.80;80.80
26821;DHT22;37186;51.394;5.454;2022-12-18T16:17:57;1.80;80.90
26821;DHT22;37186;51.394;5.454;2022-12-18T16:20:58;1.80;80.80
26821;DHT22;37186;51.394;5.454;2022-12-18T16:23:58;1.80;80.80
26821;DHT22;37186;51.394;5.454;2022-12-18T16:27:00;1.80;80.80
26821;DHT22;37186;51.394;5.454;2022-12-18T16:30:00;1.80;80.90
26821;DHT22;37186;51.394;5.454;2022-12-18T16:33:01;1.80;80.80
26821;DHT22;37186;51.394;5.454;2022-12-18T16:36:01;1.80;80.80
26821;DHT22;37186;51.394;5.454;2022-12-18T16:39:05;1.80;80.90
26821;DHT22;37186;51.394;5.454;2022-12-18T16:42:16;1.80;80.80
26821;DHT22;37186;51.394;5.454;2022-12-18T16:45:19;1.90;81.00
26821;DHT22;37186;51.394;5.454;2022-12-18T16:48:19;1.90;80.90
26821;DHT22;37186;51.394;5.454;2022-12-18T16:51:20;1.90;81.00
26821;DHT22;37186;51.394;5.454;2022-12-18T16:54:20;1.90;81.00
26821;DHT22;37186;51.394;5.454;2022-12-18T16:57:21;1.90;81.00
26821;DHT22;37186;51.394;5.454;2022-12-18T17:00:22;1.90;81.00
26821;DHT22;37186;51.394;5.454;2022-12-18T17:03:22;1.90;81.00
26821;DHT22;37186;51.394;5.454;2022-12-18T17:06:24;1.90;81.00
26821;DHT22;37186;51.394;5.454;2022-12-18T17:09:25;1.90;81.00
26821;DHT22;37186;51.394;5.454;2022-12-18T17:12:26;1.90;81.00
26821;DHT22;37186;51.394;5.454;2022-12-18T17:15:26;1.90;81.00
26821;DHT22;37186;51.394;5.454;2022-12-18T17:18:27;1.90;81.00
26821;DHT22;37186;51.394;5.454;2022-12-18T17:21:27;1.90;81.00
26821;DHT22;37186;51.394;5.454;2022-12-18T17:24:28;2.00;81.00
26821;DHT22;37186;51.394;5.454;2022-12-18T17:27:28;1.90;81.00
26821;DHT22;37186;51.394;5.454;2022-12-18T17:30:29;1.90;81.70
26821;DHT22;37186;51.394;5.454;2022-12-18T17:33:29;2.00;81.00
26821;DHT22;37186;51.394;5.454;2022-12-18T17:36:30;2.00;81.00
26821;DHT22;37186;51.394;5.454;2022-12-18T17:39:31;2.00;81.00
26821;DHT22;37186;51.394;5.454;2022-12-18T17:42:32;2.00;81.00
26821;DHT22;37186;51.394;5.454;2022-12-18T17:45:37;2.00;81.00
26821;DHT22;37186;51.394;5.454;2022-12-18T17:48:38;2.00;81.00
26821;DHT22;37186;51.394;5.454;2022-12-18T17:51:38;2.00;81.00
26821;DHT22;37186;51.394;5.454;2022-12-18T17:54:41;2.00;81.00
26821;DHT22;37186;51.394;5.454;2022-12-18T17:57:43;2.00;81.00
26821;DHT22;37186;51.394;5.454;2022-12-18T18:00:43;2.00;81.00
26821;DHT22;37186;51.394;5.454;2022-12-18T18:03:44;2.00;81.00
26821;DHT22;37186;51.394;5.454;2022-12-18T18:06:45;2.10;81.10
26821;DHT22;37186;51.394;5.454;2022-12-18T18:09:46;2.10;81.10
26821;DHT22;37186;51.394;5.454;2022-12-18T18:12:46;2.10;81.10
26821;DHT22;37186;51.394;5.454;2022-12-18T18:16:07;2.10;81.10
26821;DHT22;37186;51.394;5.454;2022-12-18T18:19:10;2.10;81.10
26821;DHT22;37186;51.394;5.454;2022-12-18T18:22:11;2.10;81.10
26821;DHT22;37186;51.394;5.454;2022-12-18T18:25:12;2.10;81.10
26821;DHT22;37186;51.394;5.454;2022-12-18T18:28:12;2.10;81.10
26821;DHT22;37186;51.394;5.454;2022-12-18T18:31:13;2.10;81.10
26821;DHT22;37186;51.394;5.454;2022-12-18T18:34:19;2.10;81.10
26821;DHT22;37186;51.394;5.454;2022-12-18T18:37:20;2.10;81.10
26821;DHT22;37186;51.394;5.454;2022-12-18T18:40:20;2.20;81.10
26821;DHT22;37186;51.394;5.454;2022-12-18T18:43:21;2.20;81.10
26821;DHT22;37186;51.394;5.454;2022-12-18T18:46:21;2.20;81.10
26821;DHT22;37186;51.394;5.454;2022-12-18T18:49:23;2.20;81.10
26821;DHT22;37186;51.394;5.454;2022-12-18T18:52:26;2.20;81.10
26821;DHT22;37186;51.394;5.454;2022-12-18T18:55:26;2.20;81.10
26821;DHT22;37186;51.394;5.454;2022-12-18T18:58:28;2.20;81.10
26821;DHT22;37186;51.394;5.454;2022-12-18T19:01:29;2.20;81.10
26821;DHT22;37186;51.394;5.454;2022-12-18T19:04:30;2.20;81.10
26821;DHT22;37186;51.394;5.454;2022-12-18T19:07:30;2.30;81.20
26821;DHT22;37186;51.394;5.454;2022-12-18T19:10:31;2.30;81.20
26821;DHT22;37186;51.394;5.454;2022-12-18T19:13:32;2.30;81.10
26821;DHT22;37186;51.394;5.454;2022-12-18T19:16:33;2.30;81.20
26821;DHT22;37186;51.394;5.454;2022-12-18T19:19:34;2.30;81.20
26821;DHT22;37186;51.394;5.454;2022-12-18T19:22:35;2.30;81.10
26821;DHT22;37186;51.394;5.454;2022-12-18T19:25:38;2.30;81.20
26821;DHT22;37186;51.394;5.454;2022-12-18T19:28:39;2.30;81.20
26821;DHT22;37186;51.394;5.454;2022-12-18T19:31:39;2.30;81.20
26821;DHT22;37186;51.394;5.454;2022-12-18T19:34:40;2.40;81.20
26821;DHT22;37186;51.394;5.454;2022-12-18T19:37:41;2.40;81.20
26821;DHT22;37186;51.394;5.454;2022-12-18T19:40:43;2.40;81.20
26821;DHT22;37186;51.394;5.454;2022-12-18T19:43:44;2.40;81.20
26821;DHT22;37186;51.394;5.454;2022-12-18T19:46:45;2.40;81.20
26821;DHT22;37186;51.394;5.454;2022-12-18T19:49:48;2.40;81.20
26821;DHT22;37186;51.394;5.454;2022-12-18T19:52:49;2.50;81.30
26821;DHT22;37186;51.394;5.454;2022-12-18T19:55:50;2.50;81.30
26821;DHT22;37186;51.394;5.454;2022-12-18T19:58:51;2.50;81.30
26821;DHT22;37186;51.394;5.454;2022-12-18T20:01:52;2.50;81.30
26821;DHT22;37186;51.394;5.454;2022-12-18T20:04:53;2.50;81.30
26821;DHT22;37186;51.394;5.454;2022-12-18T20:07:53;2.60;81.40
26821;DHT22;37186;51.394;5.454;2022-12-18T20:10:54;2.50;81.40
26821;DHT22;37186;51.394;5.454;2022-12-18T20:13:55;2.60;81.40
26821;DHT22;37186;51.394;5.454;2022-12-18T20:16:55;2.60;81.40
26821;DHT22;37186;51.394;5.454;2022-12-18T20:19:57;2.60;81.40
26821;DHT22;37186;51.394;5.454;2022-12-18T20:22:57;2.70;81.40
26821;DHT22;37186;51.394;5.454;2022-12-18T20:25:58;2.60;81.40
26821;DHT22;37186;51.394;5.454;2022-12-18T20:28:58;2.60;81.40
26821;DHT22;37186;51.394;5.454;2022-12-18T20:31:59;2.60;81.40
26821;DHT22;37186;51.394;5.454;2022-12-18T20:35:00;2.60;81.40
26821;DHT22;37186;51.394;5.454;2022-12-18T20:38:00;2.60;81.50
26821;DHT22;37186;51.394;5.454;2022-12-18T20:41:01;2.60;81.40
26821;DHT22;37186;51.394;5.454;2022-12-18T20:44:07;2.70;81.50
26821;DHT22;37186;51.394;5.454;2022-12-18T20:47:08;2.70;81.50
26821;DHT22;37186;51.394;5.454;2022-12-18T20:50:08;2.60;81.50
26821;DHT22;37186;51.394;5.454;2022-12-18T20:53:09;2.70;81.50